createdAt,value
2023-04-29T00:02:14.456Z,100.00
2023-04-29T00:04:41.232Z,100.00
2023-04-29T00:07:08.935Z,99.38
2023-04-29T00:09:36.275Z,99.19
2023-04-29T00:12:02.745Z,99.02
2023-04-29T00:14:29.152Z,98.48
2023-04-29T00:16:55.558Z,97.73
2023-04-29T00:19:22.048Z,97.72
2023-04-29T00:21:48.870Z,97.46
2023-04-29T00:24:15.556Z,97.28
2023-04-29T00:26:42.149Z,96.89
2023-04-29T00:29:08.513Z,95.94
2023-04-29T00:31:35.195Z,95.20
2023-04-29T00:34:01.710Z,94.36
2023-04-29T00:36:28.319Z,94.02
2023-04-29T00:38:56.229Z,94.39
2023-04-29T00:41:23.234Z,94.16
2023-04-29T00:43:49.696Z,93.81
2023-04-29T00:46:16.222Z,93.31
2023-04-29T00:48:42.660Z,93.25
2023-04-29T00:51:09.298Z,92.60
2023-04-29T00:53:35.840Z,92.55
2023-04-29T00:56:02.919Z,92.82
2023-04-29T00:58:35.181Z,92.66
2023-04-29T01:01:04.002Z,92.33
2023-04-29T01:03:32.020Z,92.31
2023-04-29T01:06:21.090Z,91.81
2023-04-29T01:08:56.799Z,91.90
2023-04-29T01:11:27.967Z,90.88
2023-04-29T01:14:00.729Z,90.80
2023-04-29T01:16:51.907Z,91.18
2023-04-29T01:19:48.069Z,91.45
2023-04-29T01:22:14.775Z,91.09
2023-04-29T01:24:41.135Z,91.26
2023-04-29T01:27:13.737Z,91.18
2023-04-29T01:29:53.672Z,91.59
2023-04-29T01:32:37.313Z,91.85
2023-04-29T01:35:09.724Z,91.86
2023-04-29T01:37:45.597Z,92.17
2023-04-29T01:40:37.711Z,92.36
2023-04-29T01:43:08.111Z,92.48
2023-04-29T01:45:36.471Z,92.82
2023-04-29T01:48:04.743Z,93.04
2023-04-29T01:50:31.354Z,92.93
2023-04-29T01:52:58.506Z,93.23
2023-04-29T01:55:25.683Z,93.77
2023-04-29T01:57:52.205Z,93.86
2023-04-29T02:00:18.726Z,93.78
2023-04-29T02:02:45.177Z,93.78
2023-04-29T02:05:11.644Z,93.90
2023-04-29T02:07:38.195Z,93.79
2023-04-29T02:10:04.879Z,93.83
2023-04-29T02:12:31.292Z,94.22
2023-04-29T02:14:57.785Z,94.66
2023-04-29T02:17:24.208Z,94.89
2023-04-29T02:19:50.868Z,95.29
2023-04-29T02:22:17.398Z,94.96
2023-04-29T02:24:43.761Z,95.13
2023-04-29T02:27:10.184Z,95.60
2023-04-29T02:29:37.188Z,95.86
2023-04-29T02:32:03.711Z,96.94
2023-04-29T02:34:31.221Z,97.20
2023-04-29T02:36:57.890Z,97.48
2023-04-29T02:39:24.736Z,97.83
2023-04-29T02:41:54.608Z,98.85
2023-04-29T02:44:21.627Z,99.05
2023-04-29T02:46:48.004Z,98.84
2023-04-29T02:49:14.315Z,98.80
2023-04-29T02:51:41.474Z,99.09
2023-04-29T02:54:07.941Z,99.51
2023-04-29T02:56:34.310Z,99.21
2023-04-29T02:59:00.838Z,99.16
2023-04-29T03:01:27.259Z,99.57
2023-04-29T03:03:54.733Z,99.95
2023-04-29T03:06:21.542Z,100.00
2023-04-29T03:08:47.850Z,100.00
2023-04-29T03:11:14.224Z,100.00
2023-04-29T03:13:40.706Z,100.00
2023-04-29T03:16:07.313Z,100.00
2023-04-29T03:18:33.726Z,100.00
2023-04-29T03:21:00.187Z,100.00
2023-04-29T03:23:26.843Z,100.00
2023-04-29T03:25:55.634Z,100.00
2023-04-29T03:28:22.284Z,100.00
2023-04-29T03:30:48.611Z,100.00
2023-04-29T03:33:14.962Z,100.00
2023-04-29T03:35:41.324Z,100.00
2023-04-29T03:38:07.674Z,100.00
2023-04-29T03:40:34.076Z,100.00
2023-04-29T03:43:01.167Z,100.00
2023-04-29T03:45:27.511Z,100.00
2023-04-29T03:47:54.732Z,100.00
2023-04-29T03:50:21.458Z,100.00
2023-04-29T03:52:47.838Z,100.00
2023-04-29T03:55:14.263Z,100.00
2023-04-29T03:57:42.432Z,100.00
2023-04-29T04:00:09.616Z,100.00
2023-04-29T04:02:36.219Z,100.00
2023-04-29T04:05:03.061Z,100.00
2023-04-29T04:07:29.443Z,100.00
2023-04-29T04:09:55.833Z,100.00
2023-04-29T04:12:22.311Z,100.00
2023-04-29T04:14:48.668Z,100.00
2023-04-29T04:17:15.036Z,100.00
2023-04-29T04:19:41.542Z,100.00
2023-04-29T04:22:08.128Z,100.00
2023-04-29T04:24:34.504Z,100.00
2023-04-29T04:27:01.750Z,100.00
2023-04-29T04:29:28.106Z,100.00
2023-04-29T04:31:54.734Z,100.00
2023-04-29T04:34:21.280Z,100.00
2023-04-29T04:36:47.629Z,100.00
2023-04-29T04:39:14.048Z,100.00
2023-04-29T04:41:40.468Z,100.00
2023-04-29T04:44:07.094Z,100.00
2023-04-29T04:46:33.443Z,100.00
2023-04-29T04:48:59.883Z,100.00
2023-04-29T04:51:28.633Z,100.00
2023-04-29T04:53:55.059Z,100.00
2023-04-29T04:56:22.073Z,100.00
2023-04-29T04:58:48.450Z,100.00
2023-04-29T05:01:14.917Z,100.00
2023-04-29T05:03:41.572Z,100.00
2023-04-29T05:06:08.152Z,100.00
2023-04-29T05:08:34.502Z,100.00
2023-04-29T05:11:00.997Z,100.00
2023-04-29T05:13:27.432Z,100.00
2023-04-29T05:15:53.835Z,100.00
2023-04-29T05:18:20.805Z,100.00
2023-04-29T05:20:47.198Z,100.00
2023-04-29T05:23:13.518Z,100.00
2023-04-29T05:25:40.332Z,100.00
2023-04-29T05:28:07.240Z,100.00
2023-04-29T05:30:33.625Z,100.00
2023-04-29T05:33:00.261Z,100.00
2023-04-29T05:35:26.855Z,100.00
2023-04-29T05:37:53.206Z,100.00
2023-04-29T05:40:19.589Z,100.00
2023-04-29T05:42:47.019Z,100.00
2023-04-29T05:45:13.449Z,100.00
2023-04-29T05:47:40.049Z,100.00
2023-04-29T05:50:07.042Z,100.00
2023-04-29T05:52:33.412Z,100.00
2023-04-29T05:54:59.778Z,100.00
2023-04-29T05:57:26.112Z,100.00
2023-04-29T05:59:55.150Z,100.00
2023-04-29T06:02:21.885Z,100.00
2023-04-29T06:04:48.669Z,100.00
2023-04-29T06:07:15.475Z,100.00
2023-04-29T06:09:42.889Z,100.00
2023-04-29T06:12:09.436Z,100.00
2023-04-29T06:14:35.837Z,100.00
2023-04-29T06:17:02.475Z,100.00
2023-04-29T06:19:28.785Z,100.00
2023-04-29T06:21:55.202Z,100.00
2023-04-29T06:24:21.611Z,100.00
2023-04-29T06:26:48.746Z,100.00
2023-04-29T06:29:15.275Z,100.00
2023-04-29T06:31:41.857Z,100.00
2023-04-29T06:34:08.332Z,100.00
2023-04-29T06:36:34.700Z,100.00
2023-04-29T06:39:01.148Z,100.00
2023-04-29T06:41:27.817Z,100.00
2023-04-29T06:43:54.129Z,100.00
2023-04-29T06:46:20.615Z,100.00
2023-04-29T06:48:46.971Z,100.00
2023-04-29T06:51:13.308Z,100.00
2023-04-29T06:53:39.686Z,100.00
2023-04-29T06:56:06.822Z,100.00
2023-04-29T06:58:33.215Z,100.00
2023-04-29T07:00:59.762Z,100.00
2023-04-29T07:03:26.421Z,100.00
2023-04-29T07:05:52.805Z,100.00
2023-04-29T07:08:19.203Z,100.00
2023-04-29T07:10:53.952Z,100.00
2023-04-29T07:13:20.442Z,100.00
2023-04-29T07:15:46.874Z,100.00
2023-04-29T07:18:13.305Z,100.00
2023-04-29T07:20:39.750Z,100.00
2023-04-29T07:23:06.173Z,100.00
2023-04-29T07:25:33.079Z,100.00
2023-04-29T07:28:00.437Z,100.00
2023-04-29T07:30:26.799Z,100.00
2023-04-29T07:32:53.185Z,100.00
2023-04-29T07:35:19.775Z,100.00
2023-04-29T07:37:46.339Z,100.00
2023-04-29T07:40:13.423Z,100.00
2023-04-29T07:42:39.840Z,99.84
2023-04-29T07:45:06.920Z,99.69
2023-04-29T07:47:33.274Z,99.70
2023-04-29T07:49:59.981Z,99.48
2023-04-29T07:52:26.678Z,99.70
2023-04-29T07:54:55.681Z,99.55
2023-04-29T07:57:22.684Z,99.64
2023-04-29T07:59:53.583Z,99.41
2023-04-29T08:02:20.645Z,99.01
2023-04-29T08:04:47.386Z,98.93
2023-04-29T08:07:14.489Z,99.42
2023-04-29T08:09:40.855Z,99.50
2023-04-29T08:12:07.359Z,99.99
2023-04-29T08:14:33.830Z,99.64
2023-04-29T08:17:00.178Z,99.11
2023-04-29T08:19:26.591Z,99.27
2023-04-29T08:21:53.217Z,98.80
2023-04-29T08:24:20.837Z,98.78
2023-04-29T08:26:47.557Z,99.10
2023-04-29T08:29:13.971Z,98.61
2023-04-29T08:31:41.124Z,97.87
2023-04-29T08:34:07.598Z,97.38
2023-04-29T08:36:34.107Z,96.77
2023-04-29T08:39:00.545Z,96.11
2023-04-29T08:41:27.161Z,95.64
2023-04-29T08:43:53.572Z,95.42
2023-04-29T08:46:20.884Z,95.52
2023-04-29T08:48:48.381Z,94.30
2023-04-29T08:51:15.085Z,93.96
2023-04-29T08:53:41.669Z,93.50
2023-04-29T08:56:13.308Z,93.32
2023-04-29T08:58:40.874Z,92.88
2023-04-29T09:01:11.110Z,92.79
2023-04-29T09:04:09.396Z,92.69
2023-04-29T09:06:35.842Z,92.25
2023-04-29T09:09:03.743Z,91.79
2023-04-29T09:11:30.449Z,91.88
2023-04-29T09:14:00.726Z,91.41
2023-04-29T09:16:28.165Z,92.33
2023-04-29T09:18:55.237Z,91.91
2023-04-29T09:21:24.098Z,92.04
2023-04-29T09:23:58.924Z,92.18
2023-04-29T09:26:26.115Z,91.96
2023-04-29T09:29:18.333Z,91.75
2023-04-29T09:31:45.992Z,91.43
2023-04-29T09:34:13.053Z,91.98
2023-04-29T09:36:45.798Z,92.13
2023-04-29T09:39:16.456Z,92.16
2023-04-29T09:41:52.233Z,91.98
2023-04-29T09:44:27.320Z,91.11
2023-04-29T09:46:57.499Z,90.84
2023-04-29T09:49:32.707Z,91.39
2023-04-29T09:52:01.928Z,91.82
2023-04-29T09:54:30.477Z,91.71
2023-04-29T09:56:59.203Z,92.13
2023-04-29T09:59:26.504Z,92.18
2023-04-29T10:01:54.691Z,92.22
2023-04-29T10:04:27.406Z,91.85
2023-04-29T10:06:55.593Z,91.83
2023-04-29T10:09:23.538Z,91.87
2023-04-29T10:11:54.150Z,92.24
2023-04-29T10:14:27.382Z,92.56
2023-04-29T10:17:09.577Z,92.77
2023-04-29T10:19:43.621Z,92.63
2023-04-29T10:22:14.470Z,92.72
2023-04-29T10:24:43.042Z,93.07
2023-04-29T10:27:12.608Z,93.53
2023-04-29T10:29:40.290Z,93.55
2023-04-29T10:32:12.503Z,93.27
2023-04-29T10:34:41.810Z,93.80
2023-04-29T10:37:09.932Z,94.00
2023-04-29T10:39:52.883Z,93.94
2023-04-29T10:42:36.441Z,94.29
2023-04-29T10:45:19.922Z,94.51
2023-04-29T10:48:13.247Z,94.13
2023-04-29T10:50:46.889Z,94.21
2023-04-29T10:53:19.250Z,94.13
2023-04-29T10:55:59.618Z,94.39
2023-04-29T10:58:55.503Z,94.65
2023-04-29T11:01:41.420Z,95.33
2023-04-29T11:04:09.689Z,95.28
2023-04-29T11:06:35.994Z,95.57
2023-04-29T11:09:19.843Z,95.59
2023-04-29T11:11:55.141Z,95.74
2023-04-29T11:14:25.178Z,95.83
2023-04-29T11:16:53.838Z,95.99
2023-04-29T11:19:20.719Z,95.96
2023-04-29T11:21:47.642Z,95.81
2023-04-29T11:24:16.151Z,95.74
2023-04-29T11:26:43.588Z,95.34
2023-04-29T11:29:12.854Z,95.86
2023-04-29T11:31:39.715Z,95.95
2023-04-29T11:34:07.247Z,95.91
2023-04-29T11:36:34.476Z,96.11
2023-04-29T11:39:03.632Z,96.09
2023-04-29T11:41:31.529Z,95.54
2023-04-29T11:43:59.798Z,95.68
2023-04-29T11:46:28.179Z,96.22
2023-04-29T11:48:54.587Z,96.16
2023-04-29T11:51:22.435Z,95.70
2023-04-29T11:53:48.996Z,94.86
2023-04-29T11:56:15.655Z,94.78
2023-04-29T11:58:43.135Z,94.59
2023-04-29T12:01:09.715Z,95.04
2023-04-29T12:03:36.652Z,94.62
2023-04-29T12:06:03.493Z,94.64
2023-04-29T12:08:30.590Z,94.79
2023-04-29T12:10:59.049Z,94.56
2023-04-29T12:13:28.435Z,94.41
2023-04-29T12:15:56.502Z,94.51
2023-04-29T12:18:23.409Z,94.40
2023-04-29T12:20:55.842Z,93.66
2023-04-29T12:23:24.127Z,93.52
2023-04-29T12:25:52.114Z,93.26
2023-04-29T12:28:19.245Z,93.86
2023-04-29T12:30:50.427Z,93.58
2023-04-29T12:33:21.940Z,93.10
2023-04-29T12:35:50.164Z,93.30
2023-04-29T12:38:20.674Z,93.62
2023-04-29T12:40:47.193Z,93.43
2023-04-29T12:43:13.653Z,93.64
2023-04-29T12:45:40.519Z,93.66
2023-04-29T12:48:10.039Z,93.53
2023-04-29T12:50:49.699Z,92.82
2023-04-29T12:53:16.272Z,92.12
2023-04-29T12:55:42.649Z,91.43
2023-04-29T12:58:09.582Z,91.65
2023-04-29T13:00:37.748Z,90.94
2023-04-29T13:03:04.408Z,90.35
2023-04-29T13:05:31.113Z,89.93
2023-04-29T13:07:57.526Z,88.93
2023-04-29T13:10:24.057Z,89.09
2023-04-29T13:12:50.625Z,88.64
2023-04-29T13:15:16.935Z,88.01
2023-04-29T13:17:43.322Z,88.13
2023-04-29T13:20:11.817Z,87.54
2023-04-29T13:22:38.319Z,86.97
2023-04-29T13:25:05.373Z,85.83
2023-04-29T13:27:32.134Z,85.18
2023-04-29T13:29:58.599Z,85.36
2023-04-29T13:32:25.248Z,85.03
2023-04-29T13:34:51.992Z,84.52
2023-04-29T13:37:19.779Z,84.52
2023-04-29T13:39:47.978Z,84.35
2023-04-29T13:42:15.408Z,83.75
2023-04-29T13:44:52.781Z,83.04
2023-04-29T13:47:25.704Z,82.39
2023-04-29T13:55:18.414Z,82.32
2023-04-29T14:00:25.173Z,81.95
2023-04-29T14:05:25.721Z,81.85
2023-04-29T14:07:52.296Z,82.30
2023-04-29T14:10:18.927Z,82.13
2023-04-29T14:12:45.608Z,81.81
2023-04-29T14:15:12.157Z,82.02
2023-04-29T14:17:38.631Z,82.17
2023-04-29T14:20:05.655Z,82.89
2023-04-29T14:22:32.257Z,82.69
2023-04-29T14:24:58.801Z,82.19
2023-04-29T14:27:25.115Z,80.93
2023-04-29T14:29:51.441Z,80.85
2023-04-29T14:32:17.762Z,81.20
2023-04-29T14:34:44.151Z,81.71
2023-04-29T14:37:10.834Z,81.85
2023-04-29T14:39:38.404Z,82.23
2023-04-29T14:42:05.291Z,82.40
2023-04-29T14:44:31.807Z,82.44
2023-04-29T14:46:58.186Z,81.14
2023-04-29T14:49:24.527Z,81.07
2023-04-29T14:51:51.253Z,80.63
2023-04-29T14:54:17.799Z,80.00
2023-04-29T14:56:44.194Z,79.92
2023-04-29T14:59:11.139Z,80.02
2023-04-29T15:01:39.584Z,79.43
2023-04-29T15:04:06.264Z,78.62
2023-04-29T15:06:32.973Z,78.83
2023-04-29T15:08:59.403Z,78.56
2023-04-29T15:11:26.054Z,77.79
2023-04-29T15:13:52.418Z,77.53
2023-04-29T15:16:19.333Z,77.59
2023-04-29T15:18:46.422Z,77.48
2023-04-29T15:21:12.965Z,77.68
2023-04-29T15:23:39.518Z,77.82
2023-04-29T15:26:06.983Z,77.33
2023-04-29T15:28:33.509Z,77.58
2023-04-29T15:31:01.719Z,77.95
2023-04-29T15:33:28.071Z,78.06
2023-04-29T15:35:56.272Z,77.93
2023-04-29T15:38:22.734Z,77.62
2023-04-29T15:40:49.094Z,77.67
2023-04-29T15:43:15.526Z,76.35
2023-04-29T15:45:42.672Z,76.86
2023-04-29T15:48:09.119Z,77.95
2023-04-29T15:50:35.629Z,77.81
2023-04-29T15:53:02.834Z,77.32
2023-04-29T15:55:29.215Z,77.56
2023-04-29T15:57:55.878Z,77.83
2023-04-29T16:00:22.280Z,78.18
2023-04-29T16:02:48.684Z,77.11
2023-04-29T16:05:15.279Z,75.77
2023-04-29T16:07:41.646Z,75.34
2023-04-29T16:10:08.211Z,75.84
2023-04-29T16:12:34.600Z,75.80
2023-04-29T16:15:01.006Z,75.64
2023-04-29T16:17:27.500Z,75.07
2023-04-29T16:19:54.376Z,75.12
2023-04-29T16:22:21.090Z,76.05
2023-04-29T16:24:49.365Z,76.27
2023-04-29T16:27:17.492Z,75.98
2023-04-29T16:29:43.905Z,75.96
2023-04-29T16:32:10.241Z,76.43
2023-04-29T16:34:37.519Z,77.15
2023-04-29T16:37:03.930Z,77.03
2023-04-29T16:39:30.333Z,77.48
2023-04-29T16:41:56.731Z,77.70
2023-04-29T16:44:23.086Z,77.55
2023-04-29T16:46:49.441Z,77.63
2023-04-29T16:49:21.554Z,78.18
2023-04-29T16:51:48.797Z,78.61
2023-04-29T16:54:15.116Z,78.71
2023-04-29T16:56:41.563Z,78.81
2023-04-29T16:59:08.349Z,78.59
2023-04-29T17:01:34.807Z,79.09
2023-04-29T17:04:01.552Z,78.89
2023-04-29T17:06:28.017Z,79.10
2023-04-29T17:08:54.410Z,79.08
2023-04-29T17:11:20.856Z,79.25
2023-04-29T17:13:47.239Z,79.44
2023-04-29T17:16:16.180Z,79.18
2023-04-29T17:18:43.053Z,79.28
2023-04-29T17:21:09.382Z,78.87
2023-04-29T17:23:35.990Z,78.49
2023-04-29T17:26:04.244Z,78.13
2023-04-29T17:28:30.758Z,77.91
2023-04-29T17:31:00.057Z,77.24
2023-04-29T17:33:34.566Z,77.59
2023-04-29T17:36:01.821Z,78.08
2023-04-29T17:38:29.356Z,78.63
2023-04-29T17:40:56.240Z,78.52
2023-04-29T17:43:22.629Z,78.55
2023-04-29T17:45:49.120Z,78.10
2023-04-29T17:48:18.464Z,78.33
2023-04-29T17:50:46.001Z,78.09
2023-04-29T17:53:12.905Z,78.27
2023-04-29T17:55:40.163Z,78.59
2023-04-29T17:58:07.093Z,78.48
2023-04-29T18:00:35.105Z,78.88
2023-04-29T18:03:02.835Z,78.73
2023-04-29T18:05:29.395Z,78.68
2023-04-29T18:07:55.714Z,78.50
2023-04-29T18:10:22.414Z,78.43
2023-04-29T18:12:48.723Z,78.26
2023-04-29T18:15:16.445Z,78.42
2023-04-29T18:17:43.767Z,78.50
2023-04-29T18:20:11.649Z,78.40
2023-04-29T18:22:37.953Z,78.44
2023-04-29T18:25:04.794Z,78.72
2023-04-29T18:27:31.193Z,78.79
2023-04-29T18:29:57.483Z,79.25
2023-04-29T18:32:23.986Z,79.12
2023-04-29T18:34:50.374Z,79.58
2023-04-29T18:37:16.770Z,79.59
2023-04-29T18:39:43.110Z,80.12
2023-04-29T18:42:09.467Z,80.44
2023-04-29T18:44:36.014Z,80.50
2023-04-29T18:47:02.579Z,80.80
2023-04-29T18:49:30.261Z,81.41
2023-04-29T18:51:56.853Z,81.79
2023-04-29T18:54:23.229Z,81.90
2023-04-29T18:56:49.982Z,82.41
2023-04-29T18:59:19.650Z,82.38
2023-04-29T19:01:47.222Z,82.72
2023-04-29T19:04:14.041Z,83.10
2023-04-29T19:06:40.790Z,83.44
2023-04-29T19:09:07.420Z,83.47
2023-04-29T19:11:33.879Z,83.63
2023-04-29T19:14:00.263Z,83.90
2023-04-29T19:16:26.825Z,84.66
2023-04-29T19:18:53.315Z,84.83
2023-04-29T19:21:20.161Z,85.40
2023-04-29T19:23:46.982Z,86.06
2023-04-29T19:26:13.420Z,86.33
2023-04-29T19:28:39.782Z,86.37
2023-04-29T19:31:06.433Z,87.02
2023-04-29T19:33:32.923Z,87.22
2023-04-29T19:35:59.360Z,87.56
2023-04-29T19:38:26.080Z,88.05
2023-04-29T19:40:56.525Z,88.19
2023-04-29T19:43:23.361Z,88.79
2023-04-29T19:45:50.369Z,88.98
2023-04-29T19:48:17.245Z,89.11
2023-04-29T19:50:43.706Z,89.17
2023-04-29T19:53:11.387Z,88.97
2023-04-29T19:55:39.637Z,89.51
2023-04-29T19:58:06.490Z,89.83
2023-04-29T20:00:33.515Z,90.03
2023-04-29T20:03:00.007Z,90.32
2023-04-29T20:05:26.490Z,90.71
2023-04-29T20:07:52.905Z,90.50
2023-04-29T20:10:19.237Z,90.39
2023-04-29T20:12:46.580Z,90.54
2023-04-29T20:15:13.073Z,90.47
2023-04-29T20:17:39.446Z,91.31
2023-04-29T20:20:08.981Z,91.46
2023-04-29T20:22:35.650Z,91.83
2023-04-29T20:25:02.717Z,91.99
2023-04-29T20:27:29.180Z,92.15
2023-04-29T20:29:55.930Z,92.06
2023-04-29T20:32:22.589Z,91.88
2023-04-29T20:34:49.190Z,91.86
2023-04-29T20:37:15.775Z,92.25
2023-04-29T20:39:43.472Z,92.67
2023-04-29T20:42:09.962Z,93.02
2023-04-29T20:44:38.390Z,92.82
2023-04-29T20:47:05.725Z,93.40
2023-04-29T20:49:32.651Z,93.57
2023-04-29T20:51:59.797Z,93.95
2023-04-29T20:54:26.354Z,94.15
2023-04-29T20:56:52.806Z,94.32
2023-04-29T20:59:19.159Z,94.47
2023-04-29T21:01:46.293Z,94.63
2023-04-29T21:04:12.904Z,94.42
2023-04-29T21:06:39.397Z,94.67
2023-04-29T21:09:05.920Z,94.81
2023-04-29T21:11:32.358Z,94.70
2023-04-29T21:13:58.962Z,95.00
2023-04-29T21:16:25.707Z,95.08
2023-04-29T21:18:52.410Z,95.05
2023-04-29T21:21:18.851Z,94.93
2023-04-29T21:23:45.318Z,94.70
2023-04-29T21:26:14.752Z,94.60
2023-04-29T21:28:41.605Z,94.85
2023-04-29T21:31:09.589Z,94.79
2023-04-29T21:33:35.976Z,94.84
2023-04-29T21:36:02.342Z,95.17
2023-04-29T21:38:28.769Z,95.37
2023-04-29T21:40:59.349Z,95.55
2023-04-29T21:43:27.621Z,95.51
2023-04-29T21:45:54.702Z,95.68
2023-04-29T21:48:21.861Z,95.46
2023-04-29T21:50:48.242Z,95.83
2023-04-29T21:53:16.450Z,95.81
2023-04-29T21:55:43.225Z,95.44
2023-04-29T21:58:10.864Z,95.48
2023-04-29T22:00:39.064Z,95.49
2023-04-29T22:03:10.324Z,95.59
2023-04-29T22:05:37.280Z,95.75
2023-04-29T22:08:06.953Z,95.69
2023-04-29T22:10:33.567Z,95.98
2023-04-29T22:12:59.967Z,96.15
2023-04-29T22:15:28.802Z,96.38
2023-04-29T22:17:55.668Z,96.53
2023-04-29T22:20:22.149Z,96.35
2023-04-29T22:22:48.509Z,96.47
2023-04-29T22:25:14.936Z,96.59
2023-04-29T22:27:41.371Z,96.68
2023-04-29T22:30:08.387Z,96.73
2023-04-29T22:32:34.970Z,96.83
2023-04-29T22:35:01.448Z,96.88
2023-04-29T22:37:27.855Z,96.79
2023-04-29T22:39:54.508Z,96.74
2023-04-29T22:42:21.020Z,96.71
2023-04-29T22:44:47.359Z,96.77
2023-04-29T22:47:14.054Z,96.75
2023-04-29T22:49:41.018Z,96.53
2023-04-29T22:52:07.530Z,96.61
2023-04-29T22:54:33.947Z,97.18
2023-04-29T22:57:00.249Z,97.32
2023-04-29T22:59:26.617Z,97.22
2023-04-29T23:01:53.232Z,97.10
2023-04-29T23:04:20.350Z,97.22
2023-04-29T23:06:46.903Z,97.26
2023-04-29T23:09:13.305Z,97.33
2023-04-29T23:11:39.791Z,97.35
2023-04-29T23:14:06.187Z,97.48
2023-04-29T23:16:33.013Z,97.23
2023-04-29T23:18:59.517Z,97.08
2023-04-29T23:21:27.094Z,97.26
2023-04-29T23:23:54.169Z,97.57
2023-04-29T23:26:20.768Z,97.40
2023-04-29T23:28:47.114Z,97.02
2023-04-29T23:31:13.587Z,97.23
2023-04-29T23:33:39.887Z,97.34
2023-04-29T23:36:06.517Z,97.34
2023-04-29T23:38:32.980Z,97.31
2023-04-29T23:40:59.283Z,97.01
2023-04-29T23:43:25.784Z,96.98
2023-04-29T23:45:52.967Z,97.21
2023-04-29T23:48:19.362Z,97.31
2023-04-29T23:50:47.118Z,97.50
2023-04-29T23:53:13.566Z,97.16
2023-04-29T23:55:40.016Z,97.02
2023-04-29T23:58:07.511Z,97.09
